createdAt,value
2022-09-22T00:01:31.816Z,95.14
2022-09-22T00:04:01.575Z,95.42
2022-09-22T00:06:31.310Z,96.16
2022-09-22T00:09:01.992Z,96.30
2022-09-22T00:11:30.983Z,94.00
2022-09-22T00:14:00.420Z,94.40
2022-09-22T00:16:29.732Z,94.15
2022-09-22T00:18:57.647Z,93.82
2022-09-22T00:21:27.928Z,94.93
2022-09-22T00:23:56.270Z,96.12
2022-09-22T00:26:25.994Z,95.12
2022-09-22T00:28:53.988Z,94.45
2022-09-22T00:31:23.880Z,96.35
2022-09-22T00:33:51.866Z,96.16
2022-09-22T00:36:22.054Z,97.04
2022-09-22T00:38:51.369Z,96.37
2022-09-22T00:41:20.949Z,95.94
2022-09-22T00:43:51.471Z,95.46
2022-09-22T00:46:21.944Z,95.31
2022-09-22T00:48:51.606Z,95.26
2022-09-22T00:51:23.657Z,96.29
2022-09-22T00:53:52.046Z,95.78
2022-09-22T00:56:22.496Z,96.09
2022-09-22T00:58:54.969Z,95.96
2022-09-22T01:01:22.870Z,96.33
2022-09-22T01:03:51.589Z,97.00
2022-09-22T01:06:22.869Z,96.49
2022-09-22T01:08:50.886Z,97.21
2022-09-22T01:11:20.738Z,96.92
2022-09-22T01:13:54.880Z,97.29
2022-09-22T01:16:36.019Z,99.43
2022-09-22T01:19:21.311Z,99.95
2022-09-22T01:21:52.119Z,100.00
2022-09-22T01:24:55.269Z,99.76
2022-09-22T01:27:31.915Z,99.99
2022-09-22T01:30:19.778Z,100.00
2022-09-22T01:33:10.858Z,100.00
2022-09-22T01:35:46.165Z,99.52
2022-09-22T01:38:18.148Z,99.79
2022-09-22T01:40:50.722Z,100.00
2022-09-22T01:43:25.003Z,100.00
2022-09-22T01:45:55.185Z,100.00
2022-09-22T01:48:25.904Z,100.00
2022-09-22T01:50:56.433Z,100.00
2022-09-22T01:53:27.373Z,100.00
2022-09-22T01:55:57.996Z,100.00
2022-09-22T01:58:30.113Z,100.00
2022-09-22T02:01:02.125Z,100.00
2022-09-22T02:03:36.372Z,100.00
2022-09-22T02:06:07.408Z,100.00
2022-09-22T02:08:38.048Z,100.00
2022-09-22T02:11:10.897Z,100.00
2022-09-22T02:13:38.839Z,100.00
2022-09-22T02:16:09.067Z,100.00
2022-09-22T02:18:41.955Z,100.00
2022-09-22T02:21:10.067Z,100.00
2022-09-22T02:23:38.056Z,100.00
2022-09-22T02:26:07.122Z,100.00
2022-09-22T02:28:37.829Z,100.00
2022-09-22T02:31:24.819Z,100.00
2022-09-22T02:33:53.199Z,100.00
2022-09-22T02:36:35.909Z,100.00
2022-09-22T02:39:08.398Z,100.00
2022-09-22T02:41:42.083Z,100.00
2022-09-22T02:44:15.056Z,100.00
2022-09-22T02:46:47.621Z,100.00
2022-09-22T02:49:18.203Z,100.00
2022-09-22T02:51:47.058Z,100.00
2022-09-22T02:54:15.338Z,100.00
2022-09-22T02:56:43.525Z,100.00
2022-09-22T02:59:11.487Z,100.00
2022-09-22T03:01:39.675Z,100.00
2022-09-22T03:04:09.037Z,100.00
2022-09-22T03:06:36.800Z,100.00
2022-09-22T03:09:05.116Z,100.00
2022-09-22T03:11:33.047Z,100.00
2022-09-22T03:14:00.981Z,100.00
2022-09-22T03:16:30.172Z,100.00
2022-09-22T03:18:58.500Z,100.00
2022-09-22T03:21:27.703Z,100.00
2022-09-22T03:23:55.430Z,100.00
2022-09-22T03:26:23.099Z,100.00
2022-09-22T03:28:50.892Z,100.00
2022-09-22T03:31:18.776Z,100.00
2022-09-22T03:33:51.907Z,100.00
2022-09-22T03:36:20.462Z,100.00
2022-09-22T03:38:50.023Z,100.00
2022-09-22T03:41:17.892Z,100.00
2022-09-22T03:43:45.705Z,100.00
2022-09-22T03:46:14.396Z,100.00
2022-09-22T03:48:45.149Z,100.00
2022-09-22T03:51:13.255Z,100.00
2022-09-22T03:53:41.386Z,100.00
2022-09-22T03:56:13.099Z,100.00
2022-09-22T03:58:41.736Z,100.00
2022-09-22T04:01:11.229Z,100.00
2022-09-22T04:03:39.433Z,100.00
2022-09-22T04:06:08.031Z,100.00
2022-09-22T04:08:35.727Z,100.00
2022-09-22T04:11:03.727Z,100.00
2022-09-22T04:13:32.828Z,100.00
2022-09-22T04:16:00.380Z,100.00
2022-09-22T04:18:29.465Z,100.00
2022-09-22T04:20:58.290Z,100.00
2022-09-22T04:23:26.422Z,100.00
2022-09-22T04:25:54.494Z,100.00
2022-09-22T04:28:25.086Z,100.00
2022-09-22T04:30:54.256Z,100.00
2022-09-22T04:33:22.246Z,100.00
2022-09-22T04:35:50.131Z,100.00
2022-09-22T04:38:18.219Z,100.00
2022-09-22T04:40:46.138Z,100.00
2022-09-22T04:43:13.991Z,100.00
2022-09-22T04:45:45.126Z,100.00
2022-09-22T04:48:14.174Z,100.00
2022-09-22T04:50:47.187Z,100.00
2022-09-22T04:53:15.798Z,100.00
2022-09-22T04:55:43.391Z,100.00
2022-09-22T04:58:11.356Z,100.00
2022-09-22T05:00:39.189Z,100.00
2022-09-22T05:03:09.316Z,100.00
2022-09-22T05:05:38.522Z,100.00
2022-09-22T05:08:07.666Z,100.00
2022-09-22T05:10:36.742Z,100.00
2022-09-22T05:13:05.747Z,100.00
2022-09-22T05:15:34.663Z,100.00
2022-09-22T05:18:02.493Z,100.00
2022-09-22T05:20:30.121Z,100.00
2022-09-22T05:22:59.176Z,100.00
2022-09-22T05:25:26.813Z,100.00
2022-09-22T05:27:56.226Z,100.00
2022-09-22T05:30:25.927Z,100.00
2022-09-22T05:32:53.933Z,100.00
2022-09-22T05:35:23.447Z,100.00
2022-09-22T05:37:53.655Z,100.00
2022-09-22T05:40:24.929Z,100.00
2022-09-22T05:42:53.995Z,100.00
2022-09-22T05:45:22.541Z,100.00
2022-09-22T05:47:50.305Z,100.00
2022-09-22T05:50:19.387Z,100.00
2022-09-22T05:52:46.992Z,100.00
2022-09-22T05:55:15.147Z,100.00
2022-09-22T05:57:44.626Z,100.00
2022-09-22T06:00:27.816Z,100.00
2022-09-22T06:02:55.572Z,100.00
2022-09-22T06:05:23.349Z,100.00
2022-09-22T06:07:59.629Z,100.00
2022-09-22T06:10:27.543Z,100.00
2022-09-22T06:13:00.197Z,100.00
2022-09-22T06:15:28.615Z,100.00
2022-09-22T06:17:56.439Z,100.00
2022-09-22T06:20:24.225Z,100.00
2022-09-22T06:22:51.887Z,100.00
2022-09-22T06:25:19.458Z,100.00
2022-09-22T06:27:47.206Z,100.00
2022-09-22T06:30:16.325Z,100.00
2022-09-22T06:32:46.001Z,100.00
2022-09-22T06:35:13.563Z,100.00
2022-09-22T06:37:41.778Z,100.00
2022-09-22T06:40:12.963Z,100.00
2022-09-22T06:42:44.249Z,100.00
2022-09-22T06:45:14.681Z,100.00
2022-09-22T06:47:43.593Z,100.00
2022-09-22T06:50:11.188Z,100.00
2022-09-22T06:52:38.880Z,100.00
2022-09-22T06:55:07.463Z,100.00
2022-09-22T06:57:35.012Z,100.00
2022-09-22T07:00:03.787Z,100.00
2022-09-22T07:02:31.399Z,100.00
2022-09-22T07:05:00.366Z,100.00
2022-09-22T07:07:28.826Z,100.00
2022-09-22T07:09:56.848Z,100.00
2022-09-22T07:12:25.388Z,100.00
2022-09-22T07:14:54.131Z,99.84
2022-09-22T07:17:21.689Z,99.83
2022-09-22T07:19:51.100Z,98.86
2022-09-22T07:22:20.208Z,97.96
2022-09-22T07:24:47.795Z,98.43
2022-09-22T07:27:20.447Z,94.35
2022-09-22T07:29:48.828Z,94.44
2022-09-22T07:32:16.444Z,98.92
2022-09-22T07:34:45.075Z,98.19
2022-09-22T07:37:15.768Z,96.70
2022-09-22T07:39:45.270Z,95.82
2022-09-22T07:42:12.995Z,95.31
2022-09-22T07:44:57.956Z,94.75
2022-09-22T07:47:39.489Z,97.19
2022-09-22T07:50:07.756Z,91.72
2022-09-22T07:52:35.357Z,93.65
2022-09-22T07:55:04.509Z,92.29
2022-09-22T07:57:32.552Z,92.32
2022-09-22T08:00:00.418Z,91.62
2022-09-22T08:02:29.159Z,90.85
2022-09-22T08:05:02.820Z,88.93
2022-09-22T08:07:31.351Z,91.37
2022-09-22T08:09:59.182Z,90.55
2022-09-22T08:12:28.413Z,88.81
2022-09-22T08:14:57.960Z,88.21
2022-09-22T08:17:25.624Z,87.66
2022-09-22T08:19:53.244Z,87.16
2022-09-22T08:22:20.841Z,87.22
2022-09-22T08:24:48.387Z,87.04
2022-09-22T08:27:15.987Z,86.07
2022-09-22T08:29:44.900Z,85.40
2022-09-22T08:32:12.494Z,79.34
2022-09-22T08:34:40.083Z,82.28
2022-09-22T08:37:07.689Z,82.70
2022-09-22T08:39:36.686Z,80.81
2022-09-22T08:42:10.191Z,76.79
2022-09-22T08:44:41.241Z,76.13
2022-09-22T08:47:17.635Z,80.97
2022-09-22T08:50:05.855Z,76.52
2022-09-22T08:52:38.936Z,78.35
2022-09-22T08:55:08.512Z,72.14
2022-09-22T08:57:56.983Z,70.61
2022-09-22T09:00:25.648Z,69.93
2022-09-22T09:03:03.113Z,72.06
2022-09-22T09:05:50.883Z,68.98
2022-09-22T09:08:32.601Z,67.86
2022-09-22T09:11:08.131Z,66.42
2022-09-22T09:13:46.315Z,70.34
2022-09-22T09:16:28.607Z,63.47
2022-09-22T09:19:01.897Z,65.45
2022-09-22T09:21:30.192Z,64.38
2022-09-22T09:26:52.240Z,59.83
2022-09-22T09:29:24.112Z,59.40
2022-09-22T09:31:53.508Z,58.65
2022-09-22T09:34:24.258Z,59.94
2022-09-22T09:36:55.489Z,55.61
2022-09-22T09:39:29.215Z,53.27
2022-09-22T09:41:57.374Z,56.19
2022-09-22T09:44:29.678Z,53.50
2022-09-22T09:47:03.239Z,54.80
2022-09-22T09:49:32.316Z,57.62
2022-09-22T09:52:02.359Z,53.19
2022-09-22T09:54:30.913Z,53.17
2022-09-22T09:57:10.219Z,51.07
2022-09-22T09:59:56.692Z,50.61
2022-09-22T10:02:27.430Z,50.92
2022-09-22T10:04:57.327Z,53.54
2022-09-22T10:07:27.062Z,50.33
2022-09-22T10:09:56.055Z,54.27
2022-09-22T10:12:28.579Z,53.88
2022-09-22T10:14:57.473Z,49.38
2022-09-22T10:17:29.117Z,51.13
2022-09-22T10:20:17.926Z,50.32
2022-09-22T10:22:45.588Z,53.37
2022-09-22T10:25:22.678Z,49.22
2022-09-22T10:28:14.531Z,53.29
2022-09-22T10:30:43.592Z,51.41
2022-09-22T10:33:17.224Z,49.50
2022-09-22T10:35:47.410Z,49.79
2022-09-22T10:38:22.798Z,50.58
2022-09-22T10:40:56.389Z,46.92
2022-09-22T10:43:35.527Z,49.52
2022-09-22T10:46:17.100Z,47.31
2022-09-22T10:48:48.841Z,46.70
2022-09-22T10:51:28.348Z,48.83
2022-09-22T10:54:14.284Z,48.99
2022-09-22T10:56:44.765Z,49.24
2022-09-22T10:59:33.574Z,48.94
2022-09-22T11:02:18.187Z,46.69
2022-09-22T11:04:55.612Z,48.94
2022-09-22T11:08:06.830Z,50.50
2022-09-22T11:10:56.525Z,46.71
2022-09-22T11:13:34.977Z,44.18
2022-09-22T11:16:35.247Z,47.05
2022-09-22T11:19:40.282Z,49.32
2022-09-22T11:22:27.394Z,44.52
2022-09-22T11:25:08.619Z,44.98
2022-09-22T11:27:46.008Z,43.80
2022-09-22T11:30:20.421Z,48.63
2022-09-22T11:33:13.182Z,45.76
2022-09-22T11:35:45.889Z,46.50
2022-09-22T11:38:24.321Z,45.82
2022-09-22T11:41:14.061Z,46.01
2022-09-22T11:43:52.640Z,45.91
2022-09-22T11:46:24.241Z,48.53
2022-09-22T11:49:03.860Z,47.60
2022-09-22T11:51:55.946Z,44.11
2022-09-22T11:54:32.241Z,43.74
2022-09-22T11:57:04.465Z,45.76
2022-09-22T11:59:34.424Z,45.68
2022-09-22T12:02:05.965Z,45.57
2022-09-22T12:04:38.607Z,45.35
2022-09-22T12:07:10.348Z,43.98
2022-09-22T12:09:40.811Z,46.48
2022-09-22T12:12:13.184Z,45.42
2022-09-22T12:14:41.574Z,45.70
2022-09-22T12:17:12.611Z,47.55
2022-09-22T12:19:49.937Z,44.69
2022-09-22T12:22:22.717Z,41.46
2022-09-22T12:24:50.512Z,44.05
2022-09-22T12:27:22.400Z,41.68
2022-09-22T12:29:57.969Z,41.84
2022-09-22T12:32:35.400Z,41.26
2022-09-22T12:35:03.323Z,42.25
2022-09-22T12:37:32.919Z,42.07
2022-09-22T12:40:07.999Z,45.90
2022-09-22T12:42:38.370Z,40.94
2022-09-22T12:45:11.189Z,43.37
2022-09-22T12:47:40.739Z,44.85
2022-09-22T12:50:32.923Z,41.83
2022-09-22T12:53:04.343Z,44.75
2022-09-22T12:55:38.407Z,41.20
2022-09-22T12:58:43.684Z,43.79
2022-09-22T13:01:34.600Z,40.98
2022-09-22T13:04:17.362Z,41.65
2022-09-22T13:06:58.957Z,42.51
2022-09-22T13:09:29.958Z,40.82
2022-09-22T13:12:21.536Z,39.46
2022-09-22T13:15:20.855Z,42.30
2022-09-22T13:17:49.544Z,41.38
2022-09-22T13:20:20.256Z,42.40
2022-09-22T13:22:47.918Z,42.13
2022-09-22T13:25:26.926Z,41.93
2022-09-22T13:28:10.575Z,41.24
2022-09-22T13:30:40.562Z,38.63
2022-09-22T13:33:18.974Z,41.36
2022-09-22T13:35:46.746Z,40.59
2022-09-22T13:38:15.681Z,43.54
2022-09-22T13:40:47.975Z,41.01
2022-09-22T13:43:22.970Z,41.70
2022-09-22T13:45:52.717Z,42.68
2022-09-22T13:48:21.204Z,41.35
2022-09-22T13:50:52.032Z,38.93
2022-09-22T13:53:20.335Z,41.86
2022-09-22T13:55:49.728Z,40.71
2022-09-22T13:58:23.591Z,39.09
2022-09-22T14:01:14.351Z,38.76
2022-09-22T14:03:42.558Z,39.84
2022-09-22T14:06:11.779Z,41.28
2022-09-22T14:08:39.679Z,42.42
2022-09-22T14:11:12.481Z,42.28
2022-09-22T14:13:42.235Z,42.49
2022-09-22T14:16:18.076Z,42.61
2022-09-22T14:18:48.797Z,44.25
2022-09-22T14:21:16.608Z,43.50
2022-09-22T14:23:45.697Z,43.16
2022-09-22T14:26:33.254Z,44.33
2022-09-22T14:29:09.245Z,44.60
2022-09-22T14:31:39.977Z,44.54
2022-09-22T14:34:09.304Z,44.36
2022-09-22T14:36:37.856Z,43.98
2022-09-22T14:39:09.971Z,46.26
2022-09-22T14:41:39.434Z,45.79
2022-09-22T14:44:26.435Z,45.72
2022-09-22T14:46:57.308Z,47.75
2022-09-22T14:49:39.446Z,46.05
2022-09-22T14:52:08.687Z,46.67
2022-09-22T14:54:38.979Z,46.24
2022-09-22T14:57:08.775Z,44.23
2022-09-22T14:59:52.083Z,47.34
2022-09-22T15:02:33.370Z,46.58
2022-09-22T15:05:03.428Z,46.16
2022-09-22T15:07:32.679Z,45.48
2022-09-22T15:10:02.440Z,47.46
2022-09-22T15:12:37.896Z,47.44
2022-09-22T15:15:16.537Z,47.19
2022-09-22T15:18:04.116Z,47.68
2022-09-22T15:20:38.691Z,47.35
2022-09-22T15:23:06.449Z,48.47
2022-09-22T15:25:34.056Z,47.52
2022-09-22T15:28:06.581Z,47.71
2022-09-22T15:30:34.198Z,48.27
2022-09-22T15:33:03.808Z,47.61
2022-09-22T15:35:34.552Z,48.34
2022-09-22T15:38:02.216Z,49.57
2022-09-22T15:40:30.078Z,49.13
2022-09-22T15:43:12.313Z,50.84
2022-09-22T15:45:47.662Z,50.28
2022-09-22T15:48:26.084Z,49.18
2022-09-22T15:50:54.602Z,49.71
2022-09-22T15:53:23.004Z,49.13
2022-09-22T15:55:51.322Z,49.78
2022-09-22T15:58:19.369Z,50.50
2022-09-22T16:00:48.288Z,50.68
2022-09-22T16:03:22.274Z,50.76
2022-09-22T16:05:52.445Z,52.45
2022-09-22T16:08:20.800Z,52.60
2022-09-22T16:10:48.428Z,51.33
2022-09-22T16:13:16.064Z,51.75
2022-09-22T16:15:43.720Z,50.42
2022-09-22T16:18:11.326Z,51.68
2022-09-22T16:20:39.036Z,50.71
2022-09-22T16:23:08.005Z,52.00
2022-09-22T16:25:35.665Z,51.76
2022-09-22T16:28:03.657Z,53.81
2022-09-22T16:30:31.238Z,53.27
2022-09-22T16:32:58.822Z,53.78
2022-09-22T16:35:26.405Z,53.92
2022-09-22T16:37:57.153Z,54.82
2022-09-22T16:40:28.723Z,55.38
2022-09-22T16:42:56.440Z,56.46
2022-09-22T16:45:38.966Z,56.50
2022-09-22T16:48:07.356Z,57.89
2022-09-22T16:50:39.373Z,57.73
2022-09-22T16:53:11.139Z,57.37
2022-09-22T16:55:40.274Z,57.14
2022-09-22T16:58:13.081Z,58.62
2022-09-22T17:00:40.784Z,58.34
2022-09-22T17:03:08.446Z,59.06
2022-09-22T17:05:37.969Z,59.09
2022-09-22T17:08:06.919Z,59.32
2022-09-22T17:10:35.533Z,60.93
2022-09-22T17:13:05.229Z,60.30
2022-09-22T17:15:35.645Z,61.19
2022-09-22T17:18:04.132Z,61.32
2022-09-22T17:20:31.800Z,61.23
2022-09-22T17:22:59.423Z,61.66
2022-09-22T17:25:29.248Z,62.74
2022-09-22T17:27:57.670Z,62.77
2022-09-22T17:30:26.920Z,63.84
2022-09-22T17:32:54.744Z,62.98
2022-09-22T17:35:22.698Z,64.12
2022-09-22T17:37:52.236Z,64.59
2022-09-22T17:40:19.957Z,64.35
2022-09-22T17:42:48.353Z,66.17
2022-09-22T17:45:17.419Z,66.03
2022-09-22T17:48:04.120Z,67.04
2022-09-22T17:50:49.262Z,65.60
2022-09-22T17:53:34.788Z,65.09
2022-09-22T17:56:05.154Z,65.24
2022-09-22T17:58:33.490Z,64.83
2022-09-22T18:01:01.170Z,64.97
2022-09-22T18:03:30.264Z,64.91
2022-09-22T18:05:58.339Z,65.36
2022-09-22T18:08:26.263Z,65.24
2022-09-22T18:10:54.433Z,65.32
2022-09-22T18:13:22.718Z,65.12
2022-09-22T18:15:50.934Z,65.33
2022-09-22T18:18:18.583Z,65.51
2022-09-22T18:20:48.378Z,65.66
2022-09-22T18:23:16.716Z,66.00
2022-09-22T18:25:44.410Z,66.67
2022-09-22T18:28:12.109Z,66.83
2022-09-22T18:30:43.377Z,67.99
2022-09-22T18:33:13.478Z,68.19
2022-09-22T18:35:45.444Z,69.15
2022-09-22T18:38:15.239Z,68.66
2022-09-22T18:40:42.975Z,69.94
2022-09-22T18:43:10.920Z,68.99
2022-09-22T18:45:38.589Z,69.13
2022-09-22T18:48:07.826Z,69.00
2022-09-22T18:50:35.820Z,70.07
2022-09-22T18:53:03.625Z,70.83
2022-09-22T18:55:32.811Z,69.98
2022-09-22T18:58:01.096Z,70.90
2022-09-22T19:00:28.925Z,72.09
2022-09-22T19:02:56.941Z,71.04
2022-09-22T19:05:24.906Z,72.09
2022-09-22T19:07:53.523Z,70.76
2022-09-22T19:10:21.841Z,73.84
2022-09-22T19:12:51.125Z,73.01
2022-09-22T19:15:19.488Z,73.44
2022-09-22T19:17:49.424Z,74.81
2022-09-22T19:20:20.899Z,73.42
2022-09-22T19:22:50.374Z,75.02
2022-09-22T19:25:20.039Z,73.80
2022-09-22T19:27:47.824Z,72.99
2022-09-22T19:30:20.518Z,74.96
2022-09-22T19:32:50.451Z,75.38
2022-09-22T19:35:18.200Z,75.25
2022-09-22T19:37:45.909Z,75.09
2022-09-22T19:40:18.568Z,75.93
2022-09-22T19:42:46.645Z,75.99
2022-09-22T19:45:15.732Z,75.13
2022-09-22T19:47:43.323Z,74.64
2022-09-22T19:50:10.928Z,76.10
2022-09-22T19:52:38.700Z,75.05
2022-09-22T19:55:07.396Z,75.59
2022-09-22T19:57:36.298Z,76.58
2022-09-22T20:00:04.013Z,75.88
2022-09-22T20:02:33.037Z,76.03
2022-09-22T20:05:00.602Z,76.52
2022-09-22T20:07:28.459Z,78.10
2022-09-22T20:09:56.408Z,77.90
2022-09-22T20:12:23.972Z,78.12
2022-09-22T20:14:51.729Z,78.11
2022-09-22T20:17:19.294Z,78.66
2022-09-22T20:19:48.227Z,78.43
2022-09-22T20:22:22.798Z,78.51
2022-09-22T20:24:54.032Z,78.23
2022-09-22T20:27:25.973Z,79.79
2022-09-22T20:29:56.976Z,79.33
2022-09-22T20:32:26.130Z,79.45
2022-09-22T20:34:55.943Z,79.72
2022-09-22T20:37:24.405Z,79.33
2022-09-22T20:39:52.105Z,79.90
2022-09-22T20:42:19.755Z,78.92
2022-09-22T20:44:49.077Z,79.06
2022-09-22T20:47:18.574Z,77.76
2022-09-22T20:49:51.357Z,78.75
2022-09-22T20:52:21.540Z,79.58
2022-09-22T20:54:49.725Z,80.35
2022-09-22T20:57:18.036Z,80.49
2022-09-22T20:59:46.349Z,81.90
2022-09-22T21:02:15.126Z,80.40
2022-09-22T21:04:43.113Z,81.67
2022-09-22T21:07:11.229Z,81.10
2022-09-22T21:09:57.662Z,80.43
2022-09-22T21:12:30.689Z,80.08
2022-09-22T21:14:58.917Z,80.27
2022-09-22T21:17:27.681Z,79.96
2022-09-22T21:19:56.345Z,80.22
2022-09-22T21:22:24.501Z,79.86
2022-09-22T21:24:53.986Z,80.20
2022-09-22T21:27:21.696Z,79.42
2022-09-22T21:29:49.330Z,79.80
2022-09-22T21:32:17.216Z,79.46
2022-09-22T21:34:44.853Z,79.93
2022-09-22T21:37:12.440Z,80.78
2022-09-22T21:39:40.114Z,80.89
2022-09-22T21:42:09.371Z,81.85
2022-09-22T21:44:37.044Z,83.96
2022-09-22T21:47:04.975Z,83.82
2022-09-22T21:49:33.037Z,83.71
2022-09-22T21:52:01.393Z,83.65
2022-09-22T21:54:31.177Z,82.18
2022-09-22T21:56:59.032Z,83.08
2022-09-22T21:59:29.135Z,82.88
2022-09-22T22:01:57.276Z,83.30
2022-09-22T22:04:25.413Z,83.78
2022-09-22T22:06:53.171Z,83.58
2022-09-22T22:09:22.527Z,83.97
2022-09-22T22:11:57.384Z,84.40
2022-09-22T22:14:27.212Z,84.80
2022-09-22T22:16:56.602Z,84.95
2022-09-22T22:19:26.999Z,85.77
2022-09-22T22:21:56.164Z,86.37
2022-09-22T22:24:39.391Z,86.44
2022-09-22T22:27:10.198Z,87.23
2022-09-22T22:29:39.624Z,86.25
2022-09-22T22:32:10.401Z,86.04
2022-09-22T22:34:38.265Z,87.02
2022-09-22T22:37:10.051Z,86.48
2022-09-22T22:39:37.766Z,87.85
2022-09-22T22:42:06.203Z,87.41
2022-09-22T22:44:35.135Z,87.58
2022-09-22T22:47:02.872Z,87.82
2022-09-22T22:49:32.561Z,88.06
2022-09-22T22:52:00.262Z,87.68
2022-09-22T22:54:27.941Z,88.09
2022-09-22T22:56:55.564Z,88.34
2022-09-22T22:59:23.292Z,89.74
2022-09-22T23:01:51.017Z,89.89
2022-09-22T23:04:18.691Z,89.33
2022-09-22T23:06:48.470Z,89.81
2022-09-22T23:09:17.787Z,90.68
2022-09-22T23:11:46.354Z,90.39
2022-09-22T23:14:16.139Z,90.30
2022-09-22T23:16:45.675Z,91.62
2022-09-22T23:19:14.853Z,91.67
2022-09-22T23:21:42.627Z,92.63
2022-09-22T23:24:15.363Z,92.91
2022-09-22T23:26:43.032Z,93.42
2022-09-22T23:29:10.853Z,93.87
2022-09-22T23:31:38.553Z,94.09
2022-09-22T23:34:06.237Z,93.98
2022-09-22T23:36:33.978Z,92.94
2022-09-22T23:39:03.524Z,93.72
2022-09-22T23:41:34.712Z,94.33
2022-09-22T23:44:03.527Z,93.62
2022-09-22T23:46:31.754Z,92.76
2022-09-22T23:49:00.494Z,92.47
2022-09-22T23:51:28.278Z,92.71
2022-09-22T23:53:56.249Z,92.53
2022-09-22T23:56:24.162Z,92.41
2022-09-22T23:58:53.788Z,91.47
